Time;durP1;ratioP1;P1;durP2;ratioP2;P2;SDS_P1;SDS_P2;PMS_P1;PMS_P2;Temp;Humidity;BMP_temperature;BMP_pressure;BME280_temperature;BME280_humidity;BME280_pressure;Samples;Min_cycle;Max_cycle;Signal;HPM_P1;HPM_P2
2022/05/07 00:01:12;;;;;;;17.30;10.87;;;10.90;1.00;;;;;;5052801;28;20745;-53
2022/05/07 00:03:38;;;;;;;16.52;10.30;;;10.80;1.00;;;;;;5062196;28;20407;-53
2022/05/07 00:06:03;;;;;;;16.73;10.73;;;10.90;99.90;;;;;;5071984;28;20510;-53
2022/05/07 00:08:29;;;;;;;15.60;9.98;;;10.90;99.90;;;;;;5062141;28;20400;-52
2022/05/07 00:10:55;;;;;;;16.40;10.50;;;10.80;99.90;;;;;;5065505;28;20835;-52
2022/05/07 00:13:20;;;;;;;18.23;10.80;;;10.80;99.90;;;;;;5056072;28;20857;-52
2022/05/07 00:18:01;;;;;;;15.40;10.15;;;10.80;99.90;;;;;;5068682;28;20407;-53
2022/05/07 00:18:32;;;;;;;16.38;9.90;;;10.70;99.90;;;;;;5068649;28;20399;-53
2022/05/07 00:20:58;;;;;;;17.25;10.00;;;10.60;99.90;;;;;;5061166;28;20431;-53
2022/05/07 00:23:23;;;;;;;19.30;10.77;;;10.50;1.00;;;;;;5058366;28;20419;-53
2022/05/07 00:25:49;;;;;;;15.53;10.10;;;10.60;1.00;;;;;;5060306;28;20944;-52
2022/05/07 00:28:14;;;;;;;17.37;10.80;;;10.40;1.00;;;;;;5065476;28;20392;-53
2022/05/07 00:30:40;;;;;;;16.70;11.10;;;10.40;99.90;;;;;;5071787;28;20387;-53
2022/05/07 00:33:06;;;;;;;16.47;9.20;;;10.50;1.00;;;;;;5058501;28;20389;-52
2022/05/07 00:35:31;;;;;;;24.60;13.85;;;10.50;99.90;;;;;;5066007;28;20429;-52
2022/05/07 00:37:57;;;;;;;17.73;10.27;;;10.40;99.90;;;;;;5065652;28;20457;-53
2022/05/07 00:40:23;;;;;;;17.58;10.77;;;10.30;1.00;;;;;;5052978;28;20414;-52
2022/05/07 00:42:48;;;;;;;18.70;10.63;;;10.30;1.00;;;;;;5060055;28;20384;-53
2022/05/07 00:45:14;;;;;;;18.90;11.13;;;10.30;1.00;;;;;;5068991;28;20498;-53
2022/05/07 00:47:40;;;;;;;18.45;10.57;;;10.20;1.00;;;;;;5070401;28;20371;-53
2022/05/07 00:52:50;;;;;;;18.48;10.90;;;10.20;1.00;;;;;;5061136;28;20902;-53
2022/05/07 00:55:16;;;;;;;18.52;11.38;;;10.20;1.00;;;;;;5070653;28;20486;-52
2022/05/07 00:57:42;;;;;;;16.40;10.60;;;10.20;1.00;;;;;;5054632;28;20480;-52
2022/05/07 01:00:09;;;;;;;20.50;11.97;;;10.10;1.00;;;;;;5056290;28;20886;-52
2022/05/07 01:02:38;;;;;;;20.80;11.80;;;10.10;1.00;;;;;;5070887;28;20466;-53
2022/05/07 01:05:08;;;;;;;16.98;11.27;;;10.00;1.00;;;;;;5063870;28;20445;-52
2022/05/07 01:07:34;;;;;;;18.80;11.57;;;9.90;1.00;;;;;;5054283;28;20400;-52
2022/05/07 01:10:02;;;;;;;17.30;10.63;;;9.90;1.00;;;;;;5055477;28;20399;-52
2022/05/07 01:12:28;;;;;;;19.33;12.00;;;9.80;1.00;;;;;;5052004;28;20396;-52
2022/05/07 01:14:57;;;;;;;15.35;10.43;;;10.10;1.00;;;;;;5062252;28;20396;-52
2022/05/07 01:17:23;;;;;;;16.30;10.30;;;9.90;1.00;;;;;;5050153;28;20385;-52
2022/05/07 01:19:52;;;;;;;18.13;10.40;;;9.80;1.00;;;;;;5052004;28;20493;-52
2022/05/07 01:22:19;;;;;;;16.75;10.95;;;9.90;1.00;;;;;;5064461;28;20505;-52
2022/05/07 01:24:44;;;;;;;17.63;10.88;;;9.80;1.00;;;;;;5058767;28;20469;-52
2022/05/07 01:27:10;;;;;;;17.25;10.98;;;9.80;1.00;;;;;;5060689;28;20779;-52
2022/05/07 01:29:36;;;;;;;20.87;11.63;;;9.80;1.00;;;;;;5050413;28;20435;-52
2022/05/07 01:32:02;;;;;;;18.13;11.20;;;9.80;1.00;;;;;;5051788;28;20771;-52
2022/05/07 01:34:27;;;;;;;16.65;10.07;;;9.70;1.00;;;;;;5050897;28;20397;-52
2022/05/07 01:36:53;;;;;;;20.00;11.43;;;9.70;1.00;;;;;;5051727;28;20881;-53
2022/05/07 01:39:18;;;;;;;21.03;10.50;;;9.70;1.00;;;;;;5059292;28;20758;-52
2022/05/07 01:41:44;;;;;;;16.90;10.20;;;9.60;1.00;;;;;;5050462;28;20389;-52
2022/05/07 01:44:09;;;;;;;15.90;10.60;;;9.50;1.00;;;;;;5054574;28;20510;-52
2022/05/07 01:49:19;;;;;;;16.88;10.30;;;9.40;1.00;;;;;;5067636;28;20403;-52
2022/05/07 01:51:45;;;;;;;17.60;10.80;;;9.40;1.00;;;;;;5060380;28;20402;-52
2022/05/07 01:54:11;;;;;;;18.67;10.50;;;9.50;1.00;;;;;;5064063;28;20705;-53
2022/05/07 01:56:36;;;;;;;14.95;9.85;;;9.40;1.00;;;;;;5069710;28;20386;-52
2022/05/07 01:59:02;;;;;;;16.63;9.90;;;9.40;1.00;;;;;;5066828;28;20395;-52
2022/05/07 02:01:27;;;;;;;17.83;10.32;;;9.30;1.00;;;;;;5064825;28;20441;-52
2022/05/07 02:03:53;;;;;;;20.57;10.30;;;8.60;1.00;;;;;;5060673;28;20404;-52
2022/05/07 02:06:19;;;;;;;15.20;9.90;;;9.30;1.00;;;;;;5066950;28;20722;-52
2022/05/07 02:08:44;;;;;;;16.65;10.90;;;9.30;1.00;;;;;;5050246;28;20409;-52
2022/05/07 02:11:10;;;;;;;16.60;9.93;;;9.30;1.00;;;;;;5061523;28;20934;-52
2022/05/07 02:13:35;;;;;;;16.55;10.40;;;9.30;1.00;;;;;;5061645;28;20395;-52
2022/05/07 02:16:01;;;;;;;17.53;10.73;;;9.20;1.00;;;;;;5068250;28;20387;-52
2022/05/07 02:18:27;;;;;;;19.58;11.05;;;9.30;1.00;;;;;;5051820;28;20390;-52
2022/05/07 02:20:56;;;;;;;17.07;10.40;;;9.30;1.00;;;;;;5063571;28;20411;-52
2022/05/07 02:23:22;;;;;;;19.05;10.52;;;9.20;1.00;;;;;;5050110;28;20906;-52
2022/05/07 02:25:47;;;;;;;15.23;9.90;;;9.20;1.00;;;;;;5049753;28;20470;-52
2022/05/07 02:28:14;;;;;;;17.23;11.23;;;9.10;1.00;;;;;;5050095;28;20390;-52
2022/05/07 02:30:40;;;;;;;19.38;11.10;;;9.10;1.00;;;;;;5049851;28;20381;-52
2022/05/07 02:33:06;;;;;;;17.63;11.53;;;9.10;1.00;;;;;;5066028;28;20406;-52
2022/05/07 02:35:31;;;;;;;17.25;9.95;;;9.00;1.00;;;;;;5052792;28;20413;-52
2022/05/07 02:37:58;;;;;;;17.38;10.48;;;9.00;1.00;;;;;;5068395;28;20478;-52
2022/05/07 02:40:24;;;;;;;16.23;10.13;;;9.00;1.00;;;;;;5066726;28;20391;-52
2022/05/07 02:42:50;;;;;;;16.45;10.82;;;9.00;1.00;;;;;;5049455;28;20386;-52
2022/05/07 02:45:16;;;;;;;19.58;10.20;;;9.00;1.00;;;;;;5064478;28;20408;-52
2022/05/07 02:47:43;;;;;;;17.05;10.52;;;8.90;1.00;;;;;;5062459;28;20397;-52
2022/05/07 02:50:10;;;;;;;17.77;11.23;;;8.90;1.00;;;;;;5049506;28;20882;-52
2022/05/07 02:52:37;;;;;;;18.00;10.43;;;8.90;1.00;;;;;;5048725;28;20396;-52
2022/05/07 02:55:07;;;;;;;16.85;11.00;;;8.90;1.00;;;;;;5049401;28;20393;-52
2022/05/07 02:57:33;;;;;;;17.80;10.50;;;8.90;1.00;;;;;;5048852;28;20462;-52
2022/05/07 02:59:59;;;;;;;17.08;10.65;;;8.90;1.00;;;;;;5066171;28;20371;-52
2022/05/07 03:02:25;;;;;;;19.48;10.80;;;8.90;1.00;;;;;;5068672;28;20878;-52
2022/05/07 03:04:51;;;;;;;16.83;10.70;;;8.80;1.00;;;;;;5069378;28;20761;-52
2022/05/07 03:07:17;;;;;;;19.38;11.25;;;8.70;1.00;;;;;;5068597;28;20530;-52
2022/05/07 03:09:43;;;;;;;17.20;10.25;;;8.80;1.00;;;;;;5068335;28;20474;-52
2022/05/07 03:12:11;;;;;;;17.90;10.53;;;8.60;1.00;;;;;;5061225;28;20401;-52
2022/05/07 03:14:37;;;;;;;18.60;10.20;;;8.60;1.00;;;;;;5064493;28;20399;-52
2022/05/07 03:17:03;;;;;;;16.95;10.32;;;8.60;1.00;;;;;;5063321;28;20387;-52
2022/05/07 03:19:29;;;;;;;18.00;10.60;;;8.60;1.00;;;;;;5068543;28;20783;-52
2022/05/07 03:21:55;;;;;;;16.27;10.70;;;8.70;1.00;;;;;;5050552;28;20416;-52
2022/05/07 03:24:20;;;;;;;16.53;10.33;;;8.60;1.00;;;;;;5058580;28;20500;-52
2022/05/07 03:26:46;;;;;;;15.70;10.30;;;8.60;1.00;;;;;;5067169;28;21024;-52
2022/05/07 03:29:12;;;;;;;21.73;11.00;;;8.60;1.00;;;;;;5069326;28;20368;-53
2022/05/07 03:31:39;;;;;;;16.05;10.45;;;8.60;1.00;;;;;;5065876;28;20388;-52
2022/05/07 03:34:05;;;;;;;16.73;10.20;;;8.50;1.00;;;;;;5071836;28;20868;-52
2022/05/07 03:36:31;;;;;;;17.25;9.70;;;8.50;1.00;;;;;;5065671;28;20397;-53
2022/05/07 03:38:57;;;;;;;16.17;10.00;;;8.40;1.00;;;;;;5068189;28;20394;-52
2022/05/07 03:41:22;;;;;;;17.90;10.50;;;8.50;1.00;;;;;;5058586;28;20401;-52
2022/05/07 03:43:48;;;;;;;16.90;9.77;;;8.60;1.00;;;;;;5066324;28;20520;-52
2022/05/07 03:46:14;;;;;;;17.00;9.87;;;8.60;1.00;;;;;;5061588;28;20767;-52
2022/05/07 03:48:39;;;;;;;16.63;9.73;;;8.40;1.00;;;;;;5070791;28;20399;-52
2022/05/07 03:51:05;;;;;;;16.97;10.37;;;8.40;1.00;;;;;;5052092;28;20405;-52
2022/05/07 03:53:31;;;;;;;15.65;10.40;;;8.30;1.00;;;;;;5063953;28;20407;-52
2022/05/07 03:56:07;;;;;;;15.00;9.87;;;8.30;1.00;;;;;;5070992;28;20697;-52
2022/05/07 03:58:34;;;;;;;17.35;9.68;;;8.30;1.00;;;;;;5066493;28;20399;-52
2022/05/07 04:01:00;;;;;;;17.52;10.18;;;8.20;1.00;;;;;;5066007;28;20385;-52
2022/05/07 04:03:27;;;;;;;19.92;10.63;;;8.20;1.00;;;;;;5051386;28;20797;-52
2022/05/07 04:05:52;;;;;;;15.68;10.00;;;8.20;1.00;;;;;;5066100;28;20531;-52
2022/05/07 04:08:19;;;;;;;16.30;10.00;;;8.20;1.00;;;;;;5064115;28;20384;-52
2022/05/07 04:10:45;;;;;;;16.73;10.00;;;8.20;1.00;;;;;;5057969;28;20390;-52
2022/05/07 04:13:12;;;;;;;16.70;10.50;;;8.30;1.00;;;;;;5072203;28;20394;-52
2022/05/07 04:15:38;;;;;;;18.05;10.32;;;8.40;1.00;;;;;;5068562;28;20427;-52
2022/05/07 04:18:06;;;;;;;15.98;9.98;;;8.50;1.00;;;;;;5063770;28;20407;-53
2022/05/07 04:20:31;;;;;;;15.82;9.68;;;8.50;1.00;;;;;;5065837;28;20504;-51
2022/05/07 04:22:57;;;;;;;16.20;10.10;;;8.50;1.00;;;;;;5067234;28;20598;-52
2022/05/07 04:25:23;;;;;;;14.88;9.32;;;8.50;1.00;;;;;;5065952;28;20475;-52
2022/05/07 04:27:49;;;;;;;16.02;10.30;;;8.60;1.00;;;;;;5055422;28;20421;-52
2022/05/07 04:30:14;;;;;;;17.53;9.00;;;8.60;1.00;;;;;;5063282;28;20400;-52
2022/05/07 04:32:40;;;;;;;15.18;9.82;;;8.70;1.00;;;;;;5066450;28;20795;-52
2022/05/07 04:35:06;;;;;;;14.60;9.00;;;8.80;1.00;;;;;;5055343;28;20397;-51
2022/05/07 04:37:32;;;;;;;17.42;10.30;;;8.80;1.00;;;;;;5066174;28;20466;-52
2022/05/07 04:39:57;;;;;;;14.70;9.70;;;8.90;1.00;;;;;;5062349;28;20478;-52
2022/05/07 04:42:23;;;;;;;15.57;9.50;;;9.00;1.00;;;;;;5061460;28;20381;-53
2022/05/07 04:44:49;;;;;;;18.08;11.27;;;9.00;1.00;;;;;;5069221;28;20772;-52
2022/05/07 04:47:14;;;;;;;16.00;8.87;;;9.10;1.00;;;;;;5064383;28;20950;-52
2022/05/07 04:49:40;;;;;;;15.80;9.43;;;9.40;1.00;;;;;;5058583;28;20893;-52
2022/05/07 04:52:06;;;;;;;15.20;9.05;;;9.90;1.00;;;;;;5051595;28;20401;-52
2022/05/07 04:54:32;;;;;;;16.27;8.52;;;10.50;1.00;;;;;;5062626;28;20480;-54
2022/05/07 04:56:59;;;;;;;11.90;7.50;;;11.40;99.90;;;;;;5058097;28;20386;-52
2022/05/07 04:59:25;;;;;;;14.70;7.20;;;12.80;99.90;;;;;;5059488;28;20821;-52
2022/05/07 05:01:50;;;;;;;10.68;7.03;;;14.20;99.90;;;;;;5063228;28;20395;-52
2022/05/07 05:04:17;;;;;;;12.53;7.53;;;15.60;99.90;;;;;;5057782;28;20467;-53
2022/05/07 05:06:43;;;;;;;10.77;7.40;;;16.90;1.00;;;;;;5058766;28;20388;-53
2022/05/07 05:09:10;;;;;;;11.63;7.50;;;17.80;1.00;;;;;;5066222;28;20488;-53
2022/05/07 05:11:37;;;;;;;13.83;7.67;;;18.80;99.90;;;;;;5066538;28;20405;-52
2022/05/07 05:15:01;;;;;;;11.40;7.53;;;19.60;99.90;;;;;;5065486;28;20407;-54
2022/05/07 05:16:49;;;;;;;11.77;8.10;;;20.20;99.90;;;;;;5050404;28;20530;-54
2022/05/07 05:19:15;;;;;;;11.77;8.60;;;21.30;99.90;;;;;;5070477;28;20376;-53
2022/05/07 05:21:41;;;;;;;12.85;9.13;;;21.40;99.90;;;;;;5067414;28;20815;-53
2022/05/07 05:24:07;;;;;;;14.43;9.30;;;22.00;99.90;;;;;;5060863;28;20503;-53
2022/05/07 05:26:33;;;;;;;11.60;10.23;;;22.20;99.90;;;;;;5068887;28;20415;-53
2022/05/07 05:28:58;;;;;;;12.70;10.80;;;22.80;99.90;;;;;;5059898;28;20393;-55
2022/05/07 05:31:24;;;;;;;11.03;7.60;;;23.10;99.90;;;;;;5056370;28;20388;-54
2022/05/07 05:33:49;;;;;;;13.03;7.83;;;23.50;99.90;;;;;;5063494;28;20427;-53
2022/05/07 05:36:15;;;;;;;13.10;10.40;;;23.40;99.90;;;;;;5066963;28;20921;-54
2022/05/07 05:38:41;;;;;;;16.07;11.70;;;23.70;99.90;;;;;;5050230;28;20401;-54
2022/05/07 05:41:06;;;;;;;16.00;10.87;;;24.50;99.90;;;;;;5062003;28;20396;-54
2022/05/07 05:43:32;;;;;;;11.00;7.57;;;24.40;99.90;;;;;;5060888;28;20756;-54
2022/05/07 05:45:58;;;;;;;11.30;7.90;;;25.30;99.90;;;;;;5053722;28;20528;-54
2022/05/07 05:48:28;;;;;;;11.70;8.30;;;25.00;99.90;;;;;;5065109;28;20833;-54
2022/05/07 05:50:54;;;;;;;13.43;8.73;;;24.40;99.90;;;;;;5057466;28;20815;-54
2022/05/07 05:53:20;;;;;;;14.00;8.80;;;23.60;99.90;;;;;;5062587;28;20390;-54
2022/05/07 05:55:47;;;;;;;13.52;7.95;;;23.60;99.90;;;;;;5060013;28;20404;-54
2022/05/07 05:58:13;;;;;;;12.93;9.32;;;23.70;99.90;;;;;;5063094;28;20397;-54
2022/05/07 06:00:38;;;;;;;13.68;9.00;;;24.30;99.90;;;;;;5058429;28;20501;-54
2022/05/07 06:03:04;;;;;;;12.35;8.23;;;24.90;99.90;;;;;;5060333;28;20411;-54
2022/05/07 06:05:30;;;;;;;14.48;9.55;;;26.00;99.90;;;;;;5056721;28;20445;-54
2022/05/07 06:07:56;;;;;;;12.32;9.40;;;26.20;99.90;;;;;;5060553;28;20483;-54
2022/05/07 06:10:22;;;;;;;12.50;8.40;;;25.60;99.90;;;;;;5058011;28;20969;-54
2022/05/07 06:12:47;;;;;;;13.87;9.90;;;24.90;99.90;;;;;;5055814;28;20418;-54
2022/05/07 06:15:13;;;;;;;14.90;10.70;;;25.00;99.90;;;;;;5065709;28;20472;-54
2022/05/07 06:17:39;;;;;;;16.57;10.63;;;25.10;99.90;;;;;;5062288;28;21025;-54
2022/05/07 06:20:05;;;;;;;15.73;10.47;;;24.60;99.90;;;;;;5066038;28;20467;-54
2022/05/07 06:22:31;;;;;;;14.07;9.20;;;24.50;99.90;;;;;;5066835;28;20889;-54
2022/05/07 06:27:43;;;;;;;16.00;10.70;;;24.20;99.90;;;;;;5065194;28;20843;-54
2022/05/07 06:30:09;;;;;;;13.95;9.70;;;23.80;99.90;;;;;;5064444;28;20471;-54
2022/05/07 06:32:37;;;;;;;13.20;9.50;;;24.30;99.90;;;;;;5062808;28;20479;-55
2022/05/07 06:35:06;;;;;;;15.15;10.27;;;24.60;99.90;;;;;;5065224;28;20392;-54
2022/05/07 06:37:33;;;;;;;14.30;10.00;;;24.60;99.90;;;;;;5062295;28;20437;-54
2022/05/07 06:40:00;;;;;;;18.87;10.87;;;24.60;99.90;;;;;;5062761;28;20401;-54
2022/05/07 06:42:26;;;;;;;13.68;10.30;;;25.20;99.90;;;;;;5062693;28;20388;-54
2022/05/07 06:44:51;;;;;;;13.87;10.30;;;26.00;99.90;;;;;;5062406;28;20416;-55
2022/05/07 06:47:17;;;;;;;14.03;10.43;;;26.60;99.90;;;;;;5064123;28;20404;-55
2022/05/07 06:49:43;;;;;;;13.20;9.60;;;26.60;99.90;;;;;;5064487;28;20421;-54
2022/05/07 06:52:10;;;;;;;17.58;11.70;;;25.80;99.90;;;;;;5056785;28;20486;-55
2022/05/07 06:54:36;;;;;;;14.88;11.07;;;26.10;99.90;;;;;;5065328;28;20419;-55
2022/05/07 06:57:03;;;;;;;15.30;11.43;;;26.30;99.90;;;;;;5065782;28;20400;-55
2022/05/07 06:59:30;;;;;;;16.92;10.90;;;26.60;99.90;;;;;;5063872;28;20400;-56
2022/05/07 07:01:55;;;;;;;14.68;9.88;;;26.50;99.90;;;;;;5065372;28;20391;-56
2022/05/07 07:04:22;;;;;;;14.13;10.60;;;26.80;99.90;;;;;;5057870;28;20413;-54
2022/05/07 07:06:49;;;;;;;14.25;10.90;;;27.00;99.90;;;;;;5062263;28;20395;-56
2022/05/07 07:09:14;;;;;;;15.50;10.88;;;28.00;99.90;;;;;;5066211;28;20413;-55
2022/05/07 07:11:40;;;;;;;19.00;10.47;;;28.50;99.90;;;;;;5064408;28;20815;-55
2022/05/07 07:14:06;;;;;;;16.35;10.88;;;27.80;99.90;;;;;;5072442;28;20941;-55
2022/05/07 07:16:31;;;;;;;14.25;10.10;;;28.00;99.90;;;;;;5066369;28;20397;-56
2022/05/07 07:18:57;;;;;;;14.13;10.60;;;28.10;99.90;;;;;;5068948;28;20423;-55
2022/05/07 07:21:23;;;;;;;14.00;10.60;;;28.50;99.90;;;;;;5061634;28;20413;-55
2022/05/07 07:23:48;;;;;;;15.43;10.60;;;29.20;99.90;;;;;;5065887;28;20423;-54
2022/05/07 07:26:14;;;;;;;14.60;10.00;;;29.30;99.90;;;;;;5068133;28;20496;-54
2022/05/07 07:28:40;;;;;;;14.33;10.57;;;29.20;99.90;;;;;;5064546;28;20482;-54
2022/05/07 07:31:08;;;;;;;15.32;11.70;;;29.20;99.90;;;;;;5068202;28;20479;-54
2022/05/07 07:33:34;;;;;;;16.45;10.82;;;28.70;99.90;;;;;;5069031;28;21004;-54
2022/05/07 07:36:00;;;;;;;13.00;10.63;;;28.70;99.90;;;;;;5070896;28;20791;-54
2022/05/07 07:38:26;;;;;;;14.15;11.07;;;28.60;99.90;;;;;;5068253;28;20460;-54
2022/05/07 07:40:53;;;;;;;16.33;11.57;;;28.20;99.90;;;;;;5069812;28;20873;-54
2022/05/07 07:43:19;;;;;;;13.25;10.10;;;28.50;99.90;;;;;;5058964;28;20400;-55
2022/05/07 07:48:31;;;;;;;13.45;10.85;;;29.70;99.90;;;;;;5067276;28;20744;-55
2022/05/07 07:50:57;;;;;;;14.90;11.20;;;30.80;99.90;;;;;;5068020;28;20814;-55
2022/05/07 07:53:24;;;;;;;15.05;11.38;;;30.70;99.90;;;;;;5068019;28;20414;-55
2022/05/07 07:55:50;;;;;;;14.32;10.90;;;30.70;99.90;;;;;;5070045;28;20392;-54
2022/05/07 07:58:16;;;;;;;14.80;11.60;;;30.00;99.90;;;;;;5063305;28;20411;-54
2022/05/07 08:00:44;;;;;;;14.43;11.03;;;29.80;99.90;;;;;;5067909;28;20385;-54
2022/05/07 08:03:18;;;;;;;20.02;13.43;;;29.80;99.90;;;;;;5067223;28;20517;-55
2022/05/07 08:05:47;;;;;;;15.52;11.30;;;29.80;99.90;;;;;;5066034;28;20449;-54
2022/05/07 08:13:43;;;;;;;16.43;11.70;;;29.30;99.90;;;;;;5066244;28;21056;-55
2022/05/07 08:16:10;;;;;;;15.18;10.43;;;29.40;99.90;;;;;;5065791;28;20399;-54
2022/05/07 08:18:36;;;;;;;16.40;11.60;;;29.20;99.90;;;;;;5068160;28;20396;-55
2022/05/07 08:21:03;;;;;;;14.20;10.75;;;29.60;99.90;;;;;;5068495;28;20404;-54
2022/05/07 08:23:29;;;;;;;14.10;10.60;;;29.90;99.90;;;;;;5066535;28;20422;-54
2022/05/07 08:25:55;;;;;;;14.20;11.43;;;30.00;99.90;;;;;;5070247;28;20399;-55
2022/05/07 08:28:24;;;;;;;14.67;10.80;;;30.40;99.90;;;;;;5067759;28;20429;-55
2022/05/07 08:30:50;;;;;;;14.48;10.10;;;30.30;99.90;;;;;;5070034;28;20383;-55
2022/05/07 08:33:19;;;;;;;14.00;9.90;;;30.60;99.90;;;;;;5069019;28;20407;-55
2022/05/07 08:35:45;;;;;;;15.07;11.53;;;31.60;99.90;;;;;;5068169;28;20387;-55
2022/05/07 08:38:10;;;;;;;15.53;11.70;;;32.20;99.90;;;;;;5069195;28;20740;-55
2022/05/07 08:40:36;;;;;;;14.50;12.10;;;31.30;99.90;;;;;;5067025;28;20795;-55
2022/05/07 08:43:03;;;;;;;15.67;12.00;;;30.80;99.90;;;;;;5069991;28;20387;-55
2022/05/07 08:45:29;;;;;;;17.58;12.02;;;31.50;99.90;;;;;;5066697;28;20504;-54
2022/05/07 08:47:54;;;;;;;13.53;11.10;;;31.10;99.90;;;;;;5068352;28;20817;-54
2022/05/07 08:50:22;;;;;;;14.23;11.33;;;31.20;99.90;;;;;;5068539;28;20511;-55
2022/05/07 08:52:49;;;;;;;16.33;10.87;;;31.90;99.90;;;;;;5069060;28;20441;-54
2022/05/07 08:55:17;;;;;;;14.60;11.35;;;32.40;99.90;;;;;;5068148;28;20400;-54
2022/05/07 08:57:45;;;;;;;15.63;11.02;;;32.20;99.90;;;;;;5065067;28;20392;-55
2022/05/07 09:00:13;;;;;;;14.40;10.70;;;31.90;99.90;;;;;;5063307;28;20772;-54
2022/05/07 09:02:41;;;;;;;16.63;10.60;;;31.50;99.90;;;;;;5065858;28;20477;-55
2022/05/07 09:05:09;;;;;;;17.25;11.43;;;31.10;99.90;;;;;;5064523;28;20420;-57
2022/05/07 09:07:35;;;;;;;16.75;14.98;;;31.00;99.90;;;;;;5065254;28;20440;-54
2022/05/07 09:10:01;;;;;;;15.20;13.60;;;30.30;99.90;;;;;;5065109;28;20931;-54
2022/05/07 09:12:28;;;;;;;14.07;11.90;;;30.30;99.90;;;;;;5067689;28;20403;-54
2022/05/07 09:15:05;;;;;;;14.10;9.00;;;31.40;99.90;;;;;;5068733;28;20391;-54
2022/05/07 09:17:31;;;;;;;13.17;9.03;;;32.60;99.90;;;;;;5067719;28;20388;-54
2022/05/07 09:19:57;;;;;;;14.38;9.40;;;33.40;99.90;;;;;;5065936;28;20482;-54
2022/05/07 09:22:25;;;;;;;14.43;9.40;;;33.10;99.90;;;;;;5064451;28;20464;-55
2022/05/07 09:24:55;;;;;;;12.50;9.05;;;34.20;99.90;;;;;;5061000;28;20427;-55
2022/05/07 09:27:22;;;;;;;13.10;8.90;;;34.80;99.90;;;;;;5061114;28;20559;-55
2022/05/07 09:30:02;;;;;;;15.27;9.50;;;34.30;99.90;;;;;;5068026;28;20416;-54
2022/05/07 09:32:36;;;;;;;11.50;8.60;;;33.20;99.90;;;;;;5063801;28;20396;-54
2022/05/07 09:38:01;;;;;;;13.00;8.10;;;33.10;99.90;;;;;;5066197;28;20419;-54
2022/05/07 09:40:30;;;;;;;12.13;7.00;;;33.60;99.90;;;;;;5062517;28;20414;-54
2022/05/07 09:42:59;;;;;;;13.10;6.30;;;33.20;99.90;;;;;;5067032;28;20896;-54
2022/05/07 09:45:29;;;;;;;9.30;5.22;;;33.10;99.90;;;;;;5066155;28;20869;-54
2022/05/07 09:47:55;;;;;;;10.73;5.37;;;32.80;99.90;;;;;;5065788;28;20404;-54
2022/05/07 09:50:57;;;;;;;9.15;5.65;;;32.50;99.90;;;;;;5063660;28;20807;-54
2022/05/07 09:58:54;;;;;;;9.73;8.45;;;32.00;99.90;;;;;;5065169;28;21234;-54
2022/05/07 10:01:34;;;;;;;10.90;8.50;;;30.50;99.90;;;;;;5064410;28;20742;-54
2022/05/07 10:04:59;;;;;;;10.13;9.10;;;30.60;99.90;;;;;;5063680;28;20412;-54
2022/05/07 10:07:49;;;;;;;8.40;4.60;;;30.90;99.90;;;;;;4975105;28;20394;-54
2022/05/07 10:10:29;;;;;;;8.80;6.68;;;31.80;99.90;;;;;;5061651;28;20755;-54
2022/05/07 10:12:59;;;;;;;9.98;6.60;;;31.70;99.90;;;;;;5067275;28;20384;-54
2022/05/07 10:15:26;;;;;;;11.23;8.07;;;30.70;99.90;;;;;;5066819;28;20975;-54
2022/05/07 10:18:07;;;;;;;9.80;7.50;;;30.00;99.90;;;;;;5067598;28;20474;-54
2022/05/07 10:20:41;;;;;;;10.27;7.70;;;29.70;99.90;;;;;;5064976;28;20449;-54
2022/05/07 10:23:08;;;;;;;11.43;9.45;;;29.90;99.90;;;;;;5061828;28;20403;-54
2022/05/07 10:25:34;;;;;;;10.00;7.03;;;30.00;99.90;;;;;;5063498;28;20415;-54
2022/05/07 10:28:14;;;;;;;9.10;6.90;;;30.10;99.90;;;;;;5062284;28;20401;-54
2022/05/07 10:30:54;;;;;;;11.00;7.32;;;30.40;99.90;;;;;;5065839;28;20435;-54
2022/05/07 10:33:21;;;;;;;10.32;6.95;;;28.50;99.90;;;;;;5066098;28;20396;-54
2022/05/07 10:35:49;;;;;;;9.40;8.02;;;27.30;99.90;;;;;;5066036;28;20404;-54
2022/05/07 10:38:24;;;;;;;8.50;7.30;;;26.40;99.90;;;;;;5064399;28;20894;-53
2022/05/07 10:40:54;;;;;;;9.80;7.45;;;25.70;99.90;;;;;;5065000;28;20490;-53
2022/05/07 10:43:34;;;;;;;9.55;4.85;;;24.70;99.90;;;;;;5059818;28;20558;-54
2022/05/07 10:46:05;;;;;;;7.90;4.28;;;24.10;99.90;;;;;;5051883;28;20394;-53
2022/05/07 10:48:50;;;;;;;8.18;4.22;;;24.00;99.90;;;;;;5057050;28;20389;-53
2022/05/07 10:51:36;;;;;;;8.50;3.60;;;24.10;99.90;;;;;;5062556;28;20403;-53
2022/05/07 10:54:26;;;;;;;8.07;4.50;;;24.20;99.90;;;;;;5058998;28;20416;-53
2022/05/07 10:56:56;;;;;;;9.48;5.20;;;24.10;99.90;;;;;;5059135;28;20482;-53
2022/05/07 10:59:23;;;;;;;6.95;4.53;;;24.10;99.90;;;;;;5066861;28;20395;-53
2022/05/07 11:01:49;;;;;;;7.90;4.43;;;24.40;99.90;;;;;;5055225;28;20475;-53
2022/05/07 11:04:18;;;;;;;7.00;4.30;;;24.40;99.90;;;;;;5064706;28;20411;-55
2022/05/07 11:06:47;;;;;;;9.00;5.10;;;24.50;99.90;;;;;;5057437;28;20393;-53
2022/05/07 11:09:19;;;;;;;9.05;4.80;;;25.00;99.90;;;;;;5056729;28;20514;-54
2022/05/07 11:11:47;;;;;;;7.28;4.70;;;25.70;99.90;;;;;;5064471;28;20411;-53
2022/05/07 11:14:24;;;;;;;7.00;4.70;;;26.20;99.90;;;;;;5049720;28;20740;-53
2022/05/07 11:16:55;;;;;;;7.97;4.10;;;26.10;99.90;;;;;;5057720;28;20406;-57
2022/05/07 11:19:26;;;;;;;8.02;4.50;;;25.90;99.90;;;;;;5051157;28;20491;-53
2022/05/07 11:21:53;;;;;;;8.63;4.95;;;25.00;99.90;;;;;;5054383;28;21858;-53
2022/05/07 11:24:22;;;;;;;8.13;4.30;;;24.70;99.90;;;;;;5060268;28;20419;-54
2022/05/07 11:26:52;;;;;;;10.05;4.28;;;25.20;99.90;;;;;;5056558;28;20386;-54
2022/05/07 11:29:19;;;;;;;9.65;5.82;;;25.80;99.90;;;;;;5048433;28;20409;-56
2022/05/07 11:32:00;;;;;;;7.72;4.45;;;25.60;99.90;;;;;;5059045;28;20385;-56
2022/05/07 11:34:32;;;;;;;8.07;4.35;;;25.90;99.90;;;;;;5059388;28;20434;-54
2022/05/07 11:37:21;;;;;;;8.63;4.10;;;25.60;99.90;;;;;;5058659;28;20928;-56
2022/05/07 11:39:55;;;;;;;6.97;4.20;;;25.80;99.90;;;;;;5058438;28;20763;-53
2022/05/07 11:42:39;;;;;;;7.32;4.07;;;25.80;99.90;;;;;;5063499;28;20392;-54
2022/05/07 11:45:29;;;;;;;8.05;4.50;;;25.10;99.90;;;;;;5067303;28;20418;-56
2022/05/07 11:47:55;;;;;;;7.50;4.10;;;24.90;99.90;;;;;;5066930;28;20411;-56
2022/05/07 11:50:25;;;;;;;7.93;4.20;;;24.80;99.90;;;;;;5064326;28;20407;-54
2022/05/07 11:52:53;;;;;;;6.90;4.30;;;24.70;99.90;;;;;;5064209;28;20478;-54
2022/05/07 11:55:29;;;;;;;9.63;3.90;;;24.90;99.90;;;;;;5053591;28;20428;-54
2022/05/07 11:57:56;;;;;;;7.35;4.25;;;25.10;99.90;;;;;;5058799;28;20435;-54
2022/05/07 12:00:27;;;;;;;7.20;3.87;;;25.40;99.90;;;;;;5067643;28;20403;-53
2022/05/07 12:03:02;;;;;;;7.37;4.50;;;25.50;99.90;;;;;;5043714;28;20426;-53
2022/05/07 12:05:38;;;;;;;9.03;4.80;;;25.40;99.90;;;;;;5063665;28;20428;-54
2022/05/07 12:08:13;;;;;;;7.75;4.50;;;25.20;99.90;;;;;;5066213;28;21024;-54
2022/05/07 12:10:39;;;;;;;7.70;4.10;;;25.10;99.90;;;;;;5064699;28;20391;-54
2022/05/07 12:13:05;;;;;;;10.18;4.95;;;25.20;99.90;;;;;;5068417;28;20753;-54
2022/05/07 12:18:15;;;;;;;8.02;4.20;;;25.20;99.90;;;;;;5043438;28;20403;-54
2022/05/07 12:20:40;;;;;;;8.70;3.73;;;25.30;99.90;;;;;;5059013;28;20841;-54
2022/05/07 12:31:19;;;;;;;7.75;4.00;;;25.50;99.90;;;;;;5050731;28;20384;-56
2022/05/07 12:33:44;;;;;;;10.43;5.60;;;25.00;99.90;;;;;;5070267;28;20678;-56
2022/05/07 12:36:10;;;;;;;7.37;3.20;;;24.50;99.90;;;;;;5071583;28;20471;-56
2022/05/07 12:38:35;;;;;;;6.83;2.90;;;24.40;99.90;;;;;;5070738;28;20852;-54
2022/05/07 12:41:01;;;;;;;7.90;3.47;;;24.20;99.90;;;;;;5071593;28;20387;-55
2022/05/07 12:43:28;;;;;;;7.00;2.50;;;24.50;99.90;;;;;;5070559;28;20387;-55
2022/05/07 12:45:54;;;;;;;9.13;2.97;;;24.80;99.90;;;;;;5071583;28;20387;-56
2022/05/07 12:48:20;;;;;;;7.72;2.75;;;24.90;99.90;;;;;;5071598;28;20376;-55
2022/05/07 12:50:48;;;;;;;7.50;2.80;;;25.30;99.90;;;;;;5070353;28;20397;-55
2022/05/07 12:53:14;;;;;;;7.93;3.13;;;25.40;99.90;;;;;;5071470;28;20383;-55
2022/05/07 12:55:42;;;;;;;6.35;2.60;;;25.20;99.90;;;;;;5070259;28;20383;-55
2022/05/07 12:58:09;;;;;;;7.00;3.20;;;25.30;99.90;;;;;;5060791;28;20401;-55
2022/05/07 13:00:35;;;;;;;7.07;2.80;;;25.50;99.90;;;;;;5050348;28;20381;-54
2022/05/07 13:03:02;;;;;;;7.85;2.80;;;25.00;99.90;;;;;;5051603;28;20716;-55
2022/05/07 13:05:29;;;;;;;9.00;2.80;;;25.00;99.90;;;;;;5049489;28;20424;-55
2022/05/07 13:07:55;;;;;;;5.80;2.50;;;25.10;99.90;;;;;;5051497;28;20435;-55
2022/05/07 13:10:20;;;;;;;7.20;2.80;;;24.50;99.90;;;;;;5051093;28;20378;-54
2022/05/07 13:12:46;;;;;;;8.35;3.00;;;23.80;99.90;;;;;;5066996;28;21323;-54
2022/05/07 13:15:12;;;;;;;10.20;2.92;;;23.60;99.90;;;;;;5050661;28;20418;-54
2022/05/07 13:17:38;;;;;;;7.77;2.80;;;23.90;99.90;;;;;;5050370;28;20425;-55
2022/05/07 13:20:04;;;;;;;7.40;2.70;;;24.60;99.90;;;;;;5050699;28;20419;-55